Migrate, Kentucky
Current Conditions -  °F | °C
As of 2:54 AM on Thursday 23 Oct 2014 (Local Time) from KLEX Reporting Station
Overcast Overcast  
Wind Chill: 50°   Ceiling: 2300
Heat Index: 50°   Visibility: 10mi
Dew Point: 39°   Wind: 10mph
Humidity: 66%   Direction: 40°NE
Pressure: 30.25"   Gusts: NA
Location:  38.0638°N, 84.5027°W
Report Text: KLEX 230654Z 04009KT 10SM OVC023 10/04 A3025 RMK AO2 SLP242 T01000039
Loading
Personal Weather Stations






























Interactive Weather Map
Tropical Storm Tracking
New forecast layout! Learn more

10-Day Weather Forecast

Advertisements
Track Severe Weather on mobile